Time;durP1;ratioP1;P1;durP2;ratioP2;P2;SDS_P1;SDS_P2;PMS_P1;PMS_P2;Temp;Humidity;BMP_temperature;BMP_pressure;BME280_temperature;BME280_humidity;BME280_pressure;Samples;Min_cycle;Max_cycle;Signal;HPM_P1;HPM_P2
2021/06/20 00:00:59;;;;;;;9.67;5.93;;;15.70;99.90;;;;;;5009698;28;20222;-88
2021/06/20 00:03:24;;;;;;;9.10;5.07;;;15.70;99.90;;;;;;5036016;28;21075;-85
2021/06/20 00:06:01;;;;;;;14.07;7.27;;;15.70;99.90;;;;;;5034377;28;20226;-88
2021/06/20 00:08:27;;;;;;;9.33;6.27;;;15.70;99.90;;;;;;5034259;28;20218;-86
2021/06/20 00:10:53;;;;;;;15.17;7.10;;;15.70;99.90;;;;;;5019268;28;20182;-87
2021/06/20 00:13:20;;;;;;;8.53;4.60;;;15.70;99.90;;;;;;5031938;28;20214;-88
2021/06/20 00:15:47;;;;;;;9.97;6.47;;;15.70;99.90;;;;;;5002938;28;20228;-87
2021/06/20 00:18:14;;;;;;;11.23;5.77;;;15.70;99.90;;;;;;5035298;28;20226;-87
2021/06/20 00:20:43;;;;;;;10.80;6.80;;;15.70;99.90;;;;;;5034146;28;20225;-87
2021/06/20 00:23:09;;;;;;;10.77;5.60;;;15.80;99.90;;;;;;5036647;28;20183;-88
2021/06/20 00:25:36;;;;;;;14.17;6.07;;;15.70;99.90;;;;;;5037128;28;20185;-87
2021/06/20 00:28:02;;;;;;;10.30;7.43;;;15.70;99.90;;;;;;5034009;28;20647;-90
2021/06/20 00:30:30;;;;;;;16.07;7.50;;;15.70;99.90;;;;;;5033833;28;20349;-91
2021/06/20 00:32:57;;;;;;;14.63;6.27;;;15.60;99.90;;;;;;5035745;28;20296;-90
2021/06/20 00:35:23;;;;;;;14.73;7.57;;;15.60;99.90;;;;;;5034268;28;20234;-90
2021/06/20 00:37:49;;;;;;;10.33;6.27;;;15.50;99.90;;;;;;5036213;28;20202;-88
2021/06/20 00:40:17;;;;;;;15.63;7.53;;;15.50;99.90;;;;;;5037450;28;20217;-91
2021/06/20 00:42:43;;;;;;;11.70;7.30;;;15.40;99.90;;;;;;5019589;28;20215;-88
2021/06/20 00:45:13;;;;;;;13.67;7.27;;;15.40;99.90;;;;;;5035269;28;20218;-90
2021/06/20 00:47:39;;;;;;;11.17;7.00;;;15.40;99.90;;;;;;5032667;28;20683;-88
2021/06/20 00:50:06;;;;;;;15.00;8.77;;;15.40;99.90;;;;;;5001639;28;20680;-88
2021/06/20 00:52:33;;;;;;;17.10;8.50;;;15.40;99.90;;;;;;5034451;28;20190;-89
2021/06/20 00:54:59;;;;;;;20.13;7.10;;;15.50;99.90;;;;;;5032516;28;20659;-91
2021/06/20 00:57:25;;;;;;;13.70;7.93;;;15.50;99.90;;;;;;5035142;28;20219;-92
2021/06/20 00:59:51;;;;;;;14.27;7.47;;;15.50;99.90;;;;;;5035817;28;20722;-91
2021/06/20 01:02:19;;;;;;;12.10;7.13;;;15.50;99.90;;;;;;5035287;28;20218;-88
2021/06/20 01:04:47;;;;;;;13.30;7.33;;;15.50;99.90;;;;;;5034518;28;20377;-88
2021/06/20 01:07:19;;;;;;;12.53;5.77;;;15.40;99.90;;;;;;5034220;28;20217;-89
2021/06/20 01:09:46;;;;;;;12.43;6.40;;;15.40;99.90;;;;;;5033725;28;20210;-88
2021/06/20 01:12:13;;;;;;;10.83;6.70;;;15.40;99.90;;;;;;5017911;28;20223;-89
2021/06/20 01:14:39;;;;;;;11.43;6.60;;;15.40;99.90;;;;;;5017187;28;20379;-89
2021/06/20 01:17:06;;;;;;;14.53;7.13;;;15.40;99.90;;;;;;5036628;28;20190;-87
2021/06/20 01:19:32;;;;;;;13.97;6.77;;;15.40;99.90;;;;;;5015541;28;20224;-87
2021/06/20 01:22:16;;;;;;;10.33;6.03;;;15.40;99.90;;;;;;5033890;28;20218;-88
2021/06/20 01:24:51;;;;;;;11.83;6.67;;;15.40;99.90;;;;;;5032215;28;21136;-88
2021/06/20 01:27:17;;;;;;;10.67;6.30;;;15.40;99.90;;;;;;5034333;28;20215;-90
2021/06/20 01:29:49;;;;;;;11.00;6.53;;;15.40;99.90;;;;;;5032445;28;20309;-91
2021/06/20 01:32:17;;;;;;;8.03;5.27;;;15.40;99.90;;;;;;5033277;28;20273;-87
2021/06/20 01:34:45;;;;;;;9.53;5.87;;;15.40;99.90;;;;;;5032892;28;20229;-88
2021/06/20 01:37:13;;;;;;;8.47;4.83;;;15.40;99.90;;;;;;5018289;28;20227;-87
2021/06/20 01:39:39;;;;;;;10.60;5.63;;;15.40;99.90;;;;;;5031733;28;20249;-89
2021/06/20 01:42:06;;;;;;;8.03;5.17;;;15.40;99.90;;;;;;5033334;28;20228;-89
2021/06/20 01:44:43;;;;;;;5.23;4.20;;;15.50;99.90;;;;;;5018299;28;20728;-89
2021/06/20 01:47:09;;;;;;;11.33;5.13;;;15.50;99.90;;;;;;5031394;28;20181;-88
2021/06/20 01:49:34;;;;;;;9.43;4.10;;;15.50;99.90;;;;;;5015933;28;20208;-88
2021/06/20 01:52:00;;;;;;;15.27;5.70;;;15.50;99.90;;;;;;5049652;28;20219;-90
2021/06/20 01:54:26;;;;;;;9.93;5.23;;;15.60;99.90;;;;;;5030413;28;22637;-88
2021/06/20 01:56:52;;;;;;;9.13;5.17;;;15.60;99.90;;;;;;5032243;28;20229;-87
2021/06/20 01:59:19;;;;;;;7.63;4.60;;;15.60;99.90;;;;;;5017032;28;20219;-87
2021/06/20 02:01:47;;;;;;;13.00;5.80;;;15.50;99.90;;;;;;5030732;28;20195;-87
2021/06/20 02:04:13;;;;;;;8.97;5.07;;;15.50;99.90;;;;;;5013318;28;20221;-87
2021/06/20 02:06:39;;;;;;;6.00;3.87;;;15.50;99.90;;;;;;4999763;28;20210;-88
2021/06/20 02:09:05;;;;;;;7.00;4.00;;;15.50;99.90;;;;;;5031571;28;20234;-87
2021/06/20 02:11:31;;;;;;;10.43;4.57;;;15.50;99.90;;;;;;5014486;28;20215;-87
2021/06/20 02:13:58;;;;;;;12.90;5.30;;;15.50;99.90;;;;;;5016059;28;20198;-91
2021/06/20 02:16:24;;;;;;;5.43;3.53;;;15.50;99.90;;;;;;5032710;28;20206;-87
2021/06/20 02:18:50;;;;;;;6.63;3.37;;;15.50;99.90;;;;;;5015915;28;20218;-88
2021/06/20 02:21:16;;;;;;;5.03;2.90;;;15.50;99.90;;;;;;5014985;28;20213;-89
2021/06/20 02:23:42;;;;;;;4.73;3.10;;;15.50;99.90;;;;;;5032458;28;20221;-87
2021/06/20 02:26:07;;;;;;;6.40;3.73;;;15.50;99.90;;;;;;5001480;28;21174;-90
2021/06/20 02:28:33;;;;;;;5.63;3.23;;;15.60;99.90;;;;;;4997548;28;20205;-89
2021/06/20 02:30:59;;;;;;;6.33;3.33;;;15.60;99.90;;;;;;5031818;28;21119;-89
2021/06/20 02:33:25;;;;;;;10.43;2.90;;;15.60;99.90;;;;;;4999711;28;20235;-88
2021/06/20 02:35:50;;;;;;;6.20;3.23;;;15.60;99.90;;;;;;5013830;28;20250;-87
2021/06/20 02:38:16;;;;;;;7.47;3.67;;;15.70;99.90;;;;;;5032065;28;20632;-86
2021/06/20 02:40:42;;;;;;;5.63;3.47;;;15.70;99.90;;;;;;5033488;28;20617;-88
2021/06/20 02:43:08;;;;;;;5.43;2.93;;;15.70;99.90;;;;;;5015748;28;20224;-88
2021/06/20 02:45:33;;;;;;;4.67;3.13;;;15.80;99.90;;;;;;5016539;28;20222;-86
2021/06/20 02:47:59;;;;;;;4.33;3.00;;;15.70;99.90;;;;;;5015573;28;20218;-89
2021/06/20 02:50:25;;;;;;;5.33;2.93;;;15.70;99.90;;;;;;4999361;28;20213;-86
2021/06/20 02:52:51;;;;;;;3.90;2.50;;;15.70;99.90;;;;;;5031066;28;20198;-87
2021/06/20 02:55:17;;;;;;;3.20;2.77;;;15.70;99.90;;;;;;5031888;28;20236;-85
2021/06/20 02:57:42;;;;;;;5.97;2.47;;;15.70;99.90;;;;;;4998769;28;20276;-88
2021/06/20 03:00:10;;;;;;;4.70;3.77;;;15.70;99.90;;;;;;5034865;28;21038;-87
2021/06/20 03:02:36;;;;;;;4.10;2.53;;;15.70;99.90;;;;;;5029770;28;20237;-88
2021/06/20 03:05:02;;;;;;;5.27;3.37;;;15.70;99.90;;;;;;5016626;28;20206;-87
2021/06/20 03:07:29;;;;;;;6.50;2.77;;;15.70;99.90;;;;;;5035990;28;20189;-87
2021/06/20 03:09:55;;;;;;;6.60;3.63;;;15.70;99.90;;;;;;5034449;28;20304;-89
2021/06/20 03:12:21;;;;;;;7.80;2.73;;;15.70;99.90;;;;;;5003862;28;20307;-87
2021/06/20 03:14:47;;;;;;;5.17;3.30;;;15.70;99.90;;;;;;5042788;28;20245;-91
2021/06/20 03:17:14;;;;;;;5.23;2.60;;;15.70;99.90;;;;;;5054318;28;20329;-87
2021/06/20 03:19:40;;;;;;;6.80;3.53;;;15.70;99.90;;;;;;5036179;28;20190;-89
2021/06/20 03:22:07;;;;;;;10.50;3.73;;;15.70;99.90;;;;;;5035911;28;20249;-88
2021/06/20 03:24:36;;;;;;;5.17;4.13;;;15.70;99.90;;;;;;5019956;28;20246;-88
2021/06/20 03:27:02;;;;;;;6.77;3.20;;;15.70;99.90;;;;;;5035821;28;20227;-87
2021/06/20 03:29:28;;;;;;;6.87;3.83;;;15.70;99.90;;;;;;5034084;28;21142;-87
2021/06/20 03:31:55;;;;;;;4.90;3.50;;;15.70;99.90;;;;;;5036094;28;20217;-85
2021/06/20 03:34:21;;;;;;;7.13;3.80;;;15.70;99.90;;;;;;5033711;28;20234;-86
2021/06/20 03:36:47;;;;;;;8.00;3.70;;;15.70;99.90;;;;;;5036562;28;21044;-87
2021/06/20 03:39:14;;;;;;;4.53;3.60;;;15.80;99.90;;;;;;5033075;28;20222;-89
2021/06/20 03:41:40;;;;;;;6.63;3.80;;;15.80;99.90;;;;;;5033848;28;20217;-87
2021/06/20 03:44:07;;;;;;;6.20;3.90;;;15.80;99.90;;;;;;5018075;28;20690;-88
2021/06/20 03:46:36;;;;;;;7.50;3.20;;;15.80;99.90;;;;;;5037240;28;20198;-90
2021/06/20 03:49:03;;;;;;;8.43;3.80;;;15.90;99.90;;;;;;5034207;28;20222;-90
2021/06/20 03:51:30;;;;;;;12.97;5.23;;;15.90;99.90;;;;;;5034139;28;20222;-88
2021/06/20 03:53:56;;;;;;;13.17;5.70;;;15.90;99.90;;;;;;5020110;28;20232;-89
2021/06/20 03:56:22;;;;;;;8.20;4.93;;;16.00;99.90;;;;;;5034943;28;20239;-90
2021/06/20 03:58:48;;;;;;;14.07;5.40;;;16.10;99.90;;;;;;5035072;28;20225;-88
2021/06/20 04:01:13;;;;;;;10.53;4.97;;;16.10;99.90;;;;;;5034589;28;20333;-88
2021/06/20 04:03:39;;;;;;;6.83;4.87;;;16.20;99.90;;;;;;5017576;28;20601;-87
2021/06/20 04:06:05;;;;;;;11.97;5.77;;;16.20;99.90;;;;;;5036366;28;20222;-87
2021/06/20 04:08:31;;;;;;;8.77;5.47;;;16.20;99.90;;;;;;5020282;28;20699;-88
2021/06/20 04:10:57;;;;;;;11.13;4.77;;;16.20;99.90;;;;;;5034128;28;20564;-88
2021/06/20 04:13:22;;;;;;;9.00;5.40;;;16.20;99.90;;;;;;5003030;28;20674;-88
2021/06/20 04:15:48;;;;;;;11.23;5.67;;;16.20;99.90;;;;;;5018573;28;20739;-88
2021/06/20 04:18:14;;;;;;;9.50;4.23;;;16.30;99.90;;;;;;5018238;28;20248;-88
2021/06/20 04:20:40;;;;;;;8.87;4.87;;;16.30;99.90;;;;;;5017780;28;20214;-87
2021/06/20 04:23:06;;;;;;;16.77;7.43;;;16.30;99.90;;;;;;5035872;28;20276;-87
2021/06/20 04:25:32;;;;;;;11.80;5.40;;;16.40;99.90;;;;;;5035909;28;20880;-87
2021/06/20 04:27:58;;;;;;;10.20;4.60;;;16.40;99.90;;;;;;5003007;28;20704;-86
2021/06/20 04:30:24;;;;;;;8.83;4.50;;;16.50;99.90;;;;;;5020683;28;20221;-88
2021/06/20 04:32:51;;;;;;;18.43;6.23;;;16.50;99.90;;;;;;5034480;28;20214;-88
2021/06/20 04:35:19;;;;;;;17.87;6.20;;;16.50;99.90;;;;;;5033991;28;20230;-87
2021/06/20 04:37:45;;;;;;;12.43;6.20;;;16.60;99.90;;;;;;5020069;28;20186;-88
2021/06/20 04:40:16;;;;;;;17.47;6.13;;;16.60;99.90;;;;;;5017144;28;20305;-89
2021/06/20 04:42:42;;;;;;;12.50;5.03;;;16.80;99.90;;;;;;5017529;28;20210;-89
2021/06/20 04:45:09;;;;;;;11.93;7.47;;;16.90;99.90;;;;;;5031705;28;20255;-90
2021/06/20 04:47:35;;;;;;;8.10;4.83;;;16.90;99.90;;;;;;5034222;28;20213;-89
2021/06/20 04:50:02;;;;;;;14.07;5.20;;;16.80;99.90;;;;;;5017171;28;20183;-89
2021/06/20 04:52:28;;;;;;;11.43;5.63;;;16.90;99.90;;;;;;5036190;28;20190;-89
2021/06/20 04:54:54;;;;;;;10.40;6.40;;;16.90;99.90;;;;;;5014927;28;20279;-89
2021/06/20 04:57:28;;;;;;;13.67;7.97;;;16.90;99.90;;;;;;5035592;28;20249;-89
2021/06/20 04:59:57;;;;;;;11.37;6.50;;;17.00;99.90;;;;;;5035088;28;20225;-87
2021/06/20 05:02:23;;;;;;;14.03;6.50;;;17.00;99.90;;;;;;5017703;28;20214;-88
2021/06/20 05:04:49;;;;;;;11.23;6.07;;;17.00;99.90;;;;;;5049723;28;20186;-88
2021/06/20 05:07:16;;;;;;;14.37;7.30;;;17.00;99.90;;;;;;5036067;28;20351;-89
2021/06/20 05:09:42;;;;;;;13.87;7.27;;;17.00;99.90;;;;;;5033196;28;20215;-88
2021/06/20 05:12:08;;;;;;;5.67;3.27;;;17.00;99.90;;;;;;5032871;28;20317;-88
2021/06/20 05:14:38;;;;;;;5.03;3.13;;;17.00;99.90;;;;;;5015795;28;20214;-87
2021/06/20 05:17:04;;;;;;;7.00;3.70;;;16.90;99.90;;;;;;5034248;28;20225;-89
2021/06/20 05:19:30;;;;;;;5.93;4.23;;;16.90;99.90;;;;;;5069161;28;20661;-88
2021/06/20 05:21:56;;;;;;;5.87;3.50;;;16.80;99.90;;;;;;5018017;28;20297;-88
2021/06/20 05:24:23;;;;;;;9.43;3.53;;;16.70;99.90;;;;;;5017818;28;20210;-88
2021/06/20 05:26:49;;;;;;;6.43;3.93;;;16.60;99.90;;;;;;5033400;28;20202;-87
2021/06/20 05:29:14;;;;;;;5.27;2.97;;;16.70;99.90;;;;;;5034886;28;20617;-88
2021/06/20 05:31:40;;;;;;;5.60;2.60;;;16.60;99.90;;;;;;5032779;28;20228;-87
2021/06/20 05:34:06;;;;;;;7.53;3.90;;;16.60;99.90;;;;;;5036451;28;20222;-89
2021/06/20 05:36:32;;;;;;;8.23;3.07;;;16.60;99.90;;;;;;5000030;28;20241;-88
2021/06/20 05:38:58;;;;;;;4.27;1.83;;;16.60;99.90;;;;;;5032651;28;20226;-88
2021/06/20 05:41:24;;;;;;;2.43;1.43;;;16.50;99.90;;;;;;5015705;28;20226;-88
2021/06/20 05:43:51;;;;;;;3.80;1.40;;;16.30;99.90;;;;;;5029411;28;20188;-87
2021/06/20 05:46:18;;;;;;;5.03;1.67;;;16.10;99.90;;;;;;5034458;28;20248;-89
2021/06/20 05:48:45;;;;;;;2.10;1.57;;;15.90;99.90;;;;;;5039504;28;20217;-87
2021/06/20 05:51:11;;;;;;;3.40;1.30;;;15.80;99.90;;;;;;5033932;28;20687;-87
2021/06/20 05:53:37;;;;;;;0.40;0.37;;;15.70;99.90;;;;;;5032970;28;20222;-87
2021/06/20 05:56:03;;;;;;;1.30;0.90;;;15.60;99.90;;;;;;5034647;28;20283;-88
2021/06/20 05:58:29;;;;;;;3.07;1.13;;;15.40;99.90;;;;;;5031491;28;20190;-87
2021/06/20 06:00:54;;;;;;;2.20;1.23;;;15.40;99.90;;;;;;5034981;28;20311;-87
2021/06/20 06:03:20;;;;;;;4.47;1.80;;;15.20;99.90;;;;;;5032469;28;20202;-89
2021/06/20 06:05:46;;;;;;;3.77;1.47;;;15.30;99.90;;;;;;5017507;28;20688;-89
2021/06/20 06:08:12;;;;;;;3.90;1.40;;;15.20;99.90;;;;;;5032895;28;20711;-88
2021/06/20 06:10:37;;;;;;;7.43;2.70;;;15.10;99.90;;;;;;5032493;28;20186;-88
2021/06/20 06:13:03;;;;;;;3.67;1.80;;;15.10;99.90;;;;;;5033031;28;20662;-86
2021/06/20 06:15:30;;;;;;;1.03;0.40;;;15.00;99.90;;;;;;5033555;28;20218;-87
2021/06/20 06:17:56;;;;;;;3.37;1.83;;;14.90;99.90;;;;;;5015783;28;20223;-87
2021/06/20 06:20:22;;;;;;;1.43;0.80;;;15.00;99.90;;;;;;5013791;28;20236;-88
2021/06/20 06:22:48;;;;;;;7.90;1.13;;;15.00;99.90;;;;;;5032906;28;20537;-89
2021/06/20 06:25:15;;;;;;;0.93;0.87;;;15.00;99.90;;;;;;5031306;28;20225;-88
2021/06/20 06:27:41;;;;;;;2.00;0.93;;;15.10;99.90;;;;;;5034450;28;20256;-89
2021/06/20 06:30:09;;;;;;;2.17;1.30;;;15.30;99.90;;;;;;5013000;28;20218;-90
2021/06/20 06:32:39;;;;;;;1.87;0.50;;;15.70;99.90;;;;;;5032314;28;20571;-88
2021/06/20 06:35:06;;;;;;;1.50;1.40;;;16.00;99.90;;;;;;5015576;28;20264;-89
2021/06/20 06:37:32;;;;;;;2.03;1.20;;;16.40;99.90;;;;;;5033984;28;20197;-89
2021/06/20 06:39:57;;;;;;;1.57;1.03;;;16.70;99.90;;;;;;5015724;28;20214;-89
2021/06/20 06:42:26;;;;;;;2.60;1.27;;;17.50;99.90;;;;;;5032023;28;20206;-88
2021/06/20 06:44:53;;;;;;;2.17;1.13;;;17.40;99.90;;;;;;5017304;28;20226;-89
2021/06/20 06:47:20;;;;;;;1.27;1.17;;;17.50;99.90;;;;;;5032429;28;20229;-89
2021/06/20 06:49:50;;;;;;;3.87;0.90;;;17.70;99.90;;;;;;5031530;28;20188;-88
2021/06/20 06:52:16;;;;;;;4.13;1.83;;;17.80;99.90;;;;;;5029417;28;20234;-89
2021/06/20 06:54:50;;;;;;;8.17;1.73;;;18.00;99.90;;;;;;5028027;28;20310;-90
2021/06/20 06:57:18;;;;;;;0.70;0.70;;;18.10;99.90;;;;;;5030978;28;20233;-88
2021/06/20 06:59:43;;;;;;;12.23;1.90;;;18.80;99.90;;;;;;5030152;28;20367;-88
2021/06/20 07:02:09;;;;;;;2.80;0.70;;;19.00;99.90;;;;;;5031448;28;20202;-90
2021/06/20 07:04:35;;;;;;;1.47;1.00;;;19.40;99.90;;;;;;5032705;28;20182;-86
2021/06/20 07:07:03;;;;;;;1.70;1.47;;;18.80;99.90;;;;;;5027849;28;20220;-90
2021/06/20 07:09:30;;;;;;;0.77;0.67;;;18.20;99.90;;;;;;5024585;28;20301;-91
2021/06/20 07:11:56;;;;;;;2.53;1.00;;;17.80;99.90;;;;;;5029862;28;20226;-88
2021/06/20 07:14:22;;;;;;;3.17;2.03;;;17.50;99.90;;;;;;5029727;28;20219;-89
2021/06/20 07:16:47;;;;;;;2.77;1.23;;;17.60;99.90;;;;;;5018693;28;20209;-88
2021/06/20 07:19:13;;;;;;;3.40;1.10;;;18.60;99.90;;;;;;5031639;28;20255;-88
2021/06/20 07:21:40;;;;;;;2.30;1.77;;;19.30;99.90;;;;;;5030310;28;20878;-86
2021/06/20 07:24:06;;;;;;;2.33;1.30;;;19.30;99.90;;;;;;5030240;28;20218;-84
2021/06/20 07:26:32;;;;;;;3.07;1.60;;;19.50;99.90;;;;;;5013661;28;20237;-85
2021/06/20 07:28:58;;;;;;;2.03;1.10;;;20.00;99.90;;;;;;5031144;28;20179;-86
2021/06/20 07:31:24;;;;;;;2.77;2.00;;;20.50;99.90;;;;;;5036916;28;20213;-85
2021/06/20 07:33:50;;;;;;;3.80;1.33;;;20.40;99.90;;;;;;5028964;28;20210;-87
2021/06/20 07:36:16;;;;;;;3.10;0.97;;;21.70;99.90;;;;;;5029826;28;20229;-86
2021/06/20 07:38:46;;;;;;;2.60;1.20;;;22.10;99.90;;;;;;5014240;28;20224;-87
2021/06/20 07:41:12;;;;;;;1.63;1.02;;;22.90;99.90;;;;;;5032871;28;20225;-86
2021/06/20 07:43:38;;;;;;;1.98;1.20;;;24.10;99.90;;;;;;5013659;28;20261;-86
2021/06/20 07:46:04;;;;;;;2.13;1.05;;;24.60;99.90;;;;;;5031349;28;20251;-86
2021/06/20 07:48:31;;;;;;;2.35;0.98;;;24.20;99.90;;;;;;5031212;28;20603;-87
2021/06/20 07:50:57;;;;;;;2.47;1.40;;;24.70;99.90;;;;;;5012466;28;20309;-87
2021/06/20 07:53:23;;;;;;;2.72;0.80;;;25.60;99.90;;;;;;5014481;28;20218;-88
2021/06/20 07:55:50;;;;;;;2.35;0.60;;;25.80;99.90;;;;;;5035358;28;20214;-87
2021/06/20 07:58:16;;;;;;;2.78;0.93;;;26.30;99.90;;;;;;5035107;28;20211;-89
2021/06/20 08:00:42;;;;;;;2.80;0.90;;;26.00;99.90;;;;;;5017777;28;20779;-89
2021/06/20 08:03:08;;;;;;;1.38;0.80;;;27.70;99.90;;;;;;5014503;28;20217;-89
2021/06/20 08:05:34;;;;;;;2.60;1.10;;;27.80;99.90;;;;;;5030545;28;20226;-90
2021/06/20 08:08:00;;;;;;;1.10;0.98;;;27.30;99.90;;;;;;5031775;28;20202;-88
2021/06/20 08:10:25;;;;;;;5.28;1.10;;;27.90;99.90;;;;;;5014417;28;20596;-89
2021/06/20 08:12:51;;;;;;;3.85;0.80;;;26.60;99.90;;;;;;5013058;28;20843;-88
2021/06/20 08:15:17;;;;;;;2.72;0.70;;;25.20;99.90;;;;;;4998067;28;20234;-88
2021/06/20 08:17:43;;;;;;;2.67;0.73;;;25.00;99.90;;;;;;5032221;28;20787;-85
2021/06/20 08:20:11;;;;;;;2.80;1.10;;;26.20;99.90;;;;;;5040336;28;20190;-88
2021/06/20 08:22:38;;;;;;;1.23;1.00;;;26.30;99.90;;;;;;5014975;28;20190;-87
2021/06/20 08:25:06;;;;;;;0.75;0.75;;;26.10;99.90;;;;;;5014987;28;20240;-87
2021/06/20 08:27:32;;;;;;;2.67;1.20;;;25.20;99.90;;;;;;5015012;28;20325;-86
2021/06/20 08:29:58;;;;;;;0.57;0.55;;;24.50;99.90;;;;;;5029371;28;20271;-86
2021/06/20 08:32:24;;;;;;;1.63;1.00;;;24.60;99.90;;;;;;4997588;28;20340;-86
2021/06/20 08:34:51;;;;;;;2.40;1.02;;;24.00;99.90;;;;;;5027932;28;20266;-87
2021/06/20 08:37:17;;;;;;;1.90;0.75;;;24.30;99.90;;;;;;5013959;28;20211;-85
2021/06/20 08:39:43;;;;;;;0.95;0.63;;;24.40;99.90;;;;;;5031748;28;20728;-88
2021/06/20 08:42:09;;;;;;;1.25;0.90;;;24.70;99.90;;;;;;5028996;28;20228;-85
2021/06/20 08:44:35;;;;;;;1.15;1.05;;;24.10;99.90;;;;;;5013595;28;21165;-86
2021/06/20 08:47:03;;;;;;;3.05;0.70;;;23.80;99.90;;;;;;5034623;28;20186;-85
2021/06/20 08:49:29;;;;;;;0.65;0.65;;;24.80;99.90;;;;;;5031002;28;20190;-83
2021/06/20 08:51:57;;;;;;;1.98;0.73;;;24.30;99.90;;;;;;5032323;28;20463;-85
2021/06/20 08:54:24;;;;;;;1.90;0.80;;;23.40;99.90;;;;;;5048620;28;20246;-84
2021/06/20 08:56:50;;;;;;;2.30;0.90;;;22.90;99.90;;;;;;5029565;28;20317;-87
2021/06/20 08:59:19;;;;;;;0.68;0.68;;;22.80;99.90;;;;;;5018294;28;20222;-85
2021/06/20 09:01:45;;;;;;;1.25;0.63;;;22.40;99.90;;;;;;5032404;28;20265;-85
2021/06/20 09:04:13;;;;;;;1.60;0.80;;;22.80;99.90;;;;;;5028747;28;20222;-86
2021/06/20 09:06:39;;;;;;;1.67;0.88;;;23.40;99.90;;;;;;5031117;28;20226;-87
2021/06/20 09:09:09;;;;;;;2.50;0.77;;;23.40;99.90;;;;;;5016030;28;20264;-87
2021/06/20 09:11:38;;;;;;;1.90;0.70;;;23.20;99.90;;;;;;5032179;28;20233;-86
2021/06/20 09:14:10;;;;;;;1.98;0.80;;;22.50;99.90;;;;;;5029600;28;20217;-86
2021/06/20 09:16:49;;;;;;;1.83;0.95;;;22.00;99.90;;;;;;5031153;28;20267;-83
2021/06/20 09:19:15;;;;;;;5.32;1.20;;;22.30;99.90;;;;;;5021397;28;20268;-81
2021/06/20 09:21:54;;;;;;;5.72;2.00;;;22.60;99.90;;;;;;5029752;28;20315;-83
2021/06/20 09:24:21;;;;;;;1.75;0.98;;;22.20;99.90;;;;;;5030347;28;20213;-83
2021/06/20 09:26:53;;;;;;;1.88;1.10;;;22.30;99.90;;;;;;5024669;28;20219;-82
2021/06/20 09:29:31;;;;;;;3.15;1.40;;;22.90;99.90;;;;;;5028015;28;20269;-82
2021/06/20 09:31:59;;;;;;;3.33;1.60;;;21.80;99.90;;;;;;5026104;28;20189;-82
2021/06/20 09:34:25;;;;;;;2.65;1.05;;;21.50;99.90;;;;;;5011393;28;20189;-83
2021/06/20 09:37:03;;;;;;;2.03;0.95;;;21.50;99.90;;;;;;5029178;28;20258;-83
2021/06/20 09:39:30;;;;;;;7.10;1.40;;;21.10;99.90;;;;;;5030538;28;20224;-88
2021/06/20 09:42:08;;;;;;;1.80;1.27;;;22.40;99.90;;;;;;5033167;28;20214;-87
2021/06/20 09:44:48;;;;;;;1.63;0.60;;;22.60;99.90;;;;;;5027573;28;20279;-83
2021/06/20 09:47:16;;;;;;;4.30;1.00;;;21.70;99.90;;;;;;5028528;28;20205;-81
2021/06/20 09:49:43;;;;;;;0.70;0.57;;;21.70;99.90;;;;;;5030502;28;20645;-82
2021/06/20 09:52:11;;;;;;;2.37;0.97;;;22.10;99.90;;;;;;5029990;28;20218;-81
2021/06/20 09:54:39;;;;;;;8.55;0.95;;;21.70;99.90;;;;;;5012759;28;20700;-81
2021/06/20 09:57:15;;;;;;;0.93;0.90;;;21.80;99.90;;;;;;5028963;28;20218;-82
2021/06/20 09:59:42;;;;;;;1.53;0.80;;;21.50;99.90;;;;;;5027557;28;20216;-82
2021/06/20 10:02:13;;;;;;;1.67;0.95;;;22.10;99.90;;;;;;5030222;28;20732;-85
2021/06/20 10:04:42;;;;;;;1.65;1.30;;;22.00;99.90;;;;;;5033854;28;20290;-87
2021/06/20 10:07:09;;;;;;;2.17;1.47;;;21.60;99.90;;;;;;5013015;28;20225;-85
2021/06/20 10:09:37;;;;;;;3.50;1.07;;;21.30;99.90;;;;;;5032839;28;20217;-85
2021/06/20 10:12:05;;;;;;;1.35;0.90;;;21.30;99.90;;;;;;5030151;28;20214;-85
2021/06/20 10:14:32;;;;;;;1.90;1.20;;;21.40;99.90;;;;;;5030104;28;20219;-89
2021/06/20 10:17:11;;;;;;;2.40;1.27;;;21.00;99.90;;;;;;5011261;28;20198;-87
2021/06/20 10:19:41;;;;;;;3.88;1.10;;;21.20;99.90;;;;;;5024167;28;20190;-86
2021/06/20 10:22:12;;;;;;;8.47;1.20;;;21.30;99.90;;;;;;5029747;28;20269;-85
2021/06/20 10:24:47;;;;;;;2.70;0.73;;;21.10;99.90;;;;;;5029853;28;20235;-88
2021/06/20 10:27:33;;;;;;;1.50;1.17;;;21.40;99.90;;;;;;5033613;28;20252;-85
2021/06/20 10:30:04;;;;;;;9.07;1.20;;;21.40;99.90;;;;;;5048225;28;20230;-85
2021/06/20 10:32:42;;;;;;;3.33;0.83;;;21.40;99.90;;;;;;5034174;28;20581;-84
2021/06/20 10:35:14;;;;;;;2.30;0.60;;;20.80;99.90;;;;;;5031094;28;20259;-85
2021/06/20 10:37:40;;;;;;;1.10;0.70;;;20.30;99.90;;;;;;5036112;28;20235;-84
2021/06/20 10:40:18;;;;;;;1.57;0.80;;;20.20;99.90;;;;;;5012204;28;20689;-85
2021/06/20 10:42:44;;;;;;;0.87;0.70;;;19.70;99.90;;;;;;5030838;28;20230;-86
2021/06/20 10:45:11;;;;;;;0.60;0.60;;;19.60;99.90;;;;;;4997985;28;20222;-87
2021/06/20 10:47:43;;;;;;;1.83;0.67;;;19.70;99.90;;;;;;5027239;28;20391;-88
2021/06/20 10:50:12;;;;;;;1.13;0.90;;;19.50;99.90;;;;;;5028090;28;21078;-87
2021/06/20 10:52:39;;;;;;;1.13;0.90;;;19.70;99.90;;;;;;5036767;28;20190;-89
2021/06/20 10:55:15;;;;;;;2.87;1.00;;;19.90;99.90;;;;;;5014472;28;20238;-86
2021/06/20 10:58:02;;;;;;;2.50;1.30;;;19.80;99.90;;;;;;5030353;28;20242;-85
2021/06/20 11:00:32;;;;;;;2.27;1.00;;;19.70;99.90;;;;;;5029300;28;20221;-85
2021/06/20 11:03:14;;;;;;;1.30;1.20;;;19.70;99.90;;;;;;5032077;28;20234;-87
2021/06/20 11:05:47;;;;;;;0.80;0.70;;;19.50;99.90;;;;;;5030828;28;21048;-86
2021/06/20 11:08:27;;;;;;;2.00;0.83;;;19.40;99.90;;;;;;5030763;28;20186;-88
2021/06/20 11:11:31;;;;;;;1.70;1.10;;;19.10;99.90;;;;;;5030264;28;20179;-88
2021/06/20 11:13:56;;;;;;;1.30;1.03;;;19.20;99.90;;;;;;5022412;28;20244;-87
2021/06/20 11:16:34;;;;;;;0.50;0.50;;;19.70;99.90;;;;;;5031238;28;21021;-86
2021/06/20 11:19:06;;;;;;;1.20;1.10;;;20.00;99.90;;;;;;5030584;28;20210;-84
2021/06/20 11:21:35;;;;;;;2.07;1.00;;;19.80;99.90;;;;;;5027650;28;20210;-86
2021/06/20 11:24:01;;;;;;;2.67;1.43;;;19.90;99.90;;;;;;5031628;28;20700;-88
2021/06/20 11:26:27;;;;;;;1.47;1.07;;;20.10;99.90;;;;;;5028788;28;20218;-88
2021/06/20 11:29:01;;;;;;;3.40;1.40;;;19.80;99.90;;;;;;5029589;28;20202;-82
2021/06/20 11:31:27;;;;;;;1.50;1.20;;;19.60;99.90;;;;;;5034708;28;20206;-86
2021/06/20 11:33:55;;;;;;;1.90;1.00;;;19.80;99.90;;;;;;5049352;28;20878;-83
2021/06/20 11:36:21;;;;;;;1.63;1.33;;;19.70;99.90;;;;;;5032425;28;20229;-88
2021/06/20 11:38:47;;;;;;;3.90;1.30;;;20.00;99.90;;;;;;5033448;28;20677;-83
2021/06/20 11:41:16;;;;;;;3.40;1.00;;;20.30;99.90;;;;;;5035110;28;20198;-86
2021/06/20 11:44:00;;;;;;;2.30;1.47;;;19.80;99.90;;;;;;5033779;28;20198;-87
2021/06/20 11:46:29;;;;;;;1.93;1.70;;;19.30;99.90;;;;;;5032934;28;20210;-88
2021/06/20 11:49:07;;;;;;;4.60;1.73;;;19.80;99.90;;;;;;5034449;28;20306;-86
2021/06/20 11:51:36;;;;;;;1.93;1.30;;;19.30;99.90;;;;;;5033791;28;20244;-87
2021/06/20 11:54:10;;;;;;;1.00;1.00;;;19.50;99.90;;;;;;5031361;28;20339;-85
2021/06/20 11:56:38;;;;;;;1.73;1.47;;;19.60;99.90;;;;;;5029932;28;20724;-86
2021/06/20 11:59:07;;;;;;;3.13;0.97;;;19.80;99.90;;;;;;5031136;28;21018;-85
2021/06/20 12:01:47;;;;;;;4.40;1.60;;;19.50;99.90;;;;;;5000168;28;20232;-87
2021/06/20 12:04:20;;;;;;;2.53;1.23;;;19.60;99.90;;;;;;5028738;28;20222;-86
2021/06/20 12:06:48;;;;;;;5.03;1.30;;;19.80;99.90;;;;;;5032452;28;20299;-88
2021/06/20 12:09:15;;;;;;;1.27;1.17;;;19.60;99.90;;;;;;5031909;28;20218;-89
2021/06/20 12:11:43;;;;;;;1.00;0.90;;;19.10;99.90;;;;;;5014295;28;20252;-88
2021/06/20 12:14:21;;;;;;;1.67;1.00;;;19.00;99.90;;;;;;5033011;28;20190;-88
2021/06/20 12:16:49;;;;;;;1.53;1.43;;;18.90;99.90;;;;;;5030634;28;20218;-86
2021/06/20 12:19:17;;;;;;;2.60;1.40;;;18.70;99.90;;;;;;5046477;28;20265;-87
2021/06/20 12:21:44;;;;;;;2.20;1.20;;;18.60;99.90;;;;;;5012532;28;20230;-88
2021/06/20 12:24:13;;;;;;;2.73;1.20;;;18.70;99.90;;;;;;5013420;28;20246;-87
2021/06/20 12:27:00;;;;;;;1.17;1.07;;;18.80;99.90;;;;;;5028814;28;20229;-87
2021/06/20 12:29:33;;;;;;;3.13;1.40;;;18.80;99.90;;;;;;5029997;28;20263;-87
2021/06/20 12:32:06;;;;;;;1.97;1.33;;;18.50;99.90;;;;;;5029990;28;20195;-86
2021/06/20 12:34:47;;;;;;;7.77;2.07;;;18.80;99.90;;;;;;5028505;28;20183;-85
2021/06/20 12:37:13;;;;;;;1.47;1.00;;;18.80;99.90;;;;;;5033970;28;20588;-86
2021/06/20 12:39:45;;;;;;;4.17;1.60;;;18.40;99.90;;;;;;5032284;28;20241;-84
2021/06/20 12:42:12;;;;;;;4.93;1.33;;;18.30;99.90;;;;;;5031011;28;20551;-85
2021/06/20 12:44:57;;;;;;;2.07;1.97;;;18.30;99.90;;;;;;5032094;28;20222;-86
2021/06/20 12:47:33;;;;;;;1.63;1.17;;;18.30;99.90;;;;;;5031906;28;20220;-88
2021/06/20 12:50:00;;;;;;;1.67;1.10;;;18.40;99.90;;;;;;5033387;28;20344;-87